sensor_id;sensor_type;location;lat;lon;timestamp;temperature;humidity
63051;SHT30;49136;47.416;19.402;2023-12-07T02:23:35;0.28;99.99
63051;SHT30;49136;47.416;19.402;2023-12-07T02:27:30;0.26;99.99
63051;SHT30;49136;47.416;19.402;2023-12-07T02:50:58;0.28;99.99
63051;SHT30;49136;47.416;19.402;2023-12-07T02:54:43;0.26;99.99
63051;SHT30;49136;47.416;19.402;2023-12-07T02:58:24;0.26;99.99
63051;SHT30;49136;47.416;19.402;2023-12-07T03:08:15;0.26;99.99
63051;SHT30;49136;47.416;19.402;2023-12-07T03:15:34;0.29;99.99
63051;SHT30;49136;47.416;19.402;2023-12-07T03:19:04;0.26;99.99
63051;SHT30;49136;47.416;19.402;2023-12-07T03:39:01;0.24;99.99
63051;SHT30;49136;47.416;19.402;2023-12-07T03:46:44;0.26;99.99
63051;SHT30;49136;47.416;19.402;2023-12-07T03:57:49;0.24;99.99
63051;SHT30;49136;47.416;19.402;2023-12-07T04:18:30;0.28;99.99
63051;SHT30;49136;47.416;19.402;2023-12-07T04:25:31;0.22;99.99
63051;SHT30;49136;47.416;19.402;2023-12-07T04:42:28;0.26;99.99
63051;SHT30;49136;47.416;19.402;2023-12-07T05:09:37;0.26;99.99
63051;SHT30;49136;47.416;19.402;2023-12-07T05:12:39;0.26;99.99
63051;SHT30;49136;47.416;19.402;2023-12-07T05:15:56;0.21;99.99
63051;SHT30;49136;47.416;19.402;2023-12-07T05:18:55;0.28;99.99
63051;SHT30;49136;47.416;19.402;2023-12-07T05:22:40;0.26;99.99
63051;SHT30;49136;47.416;19.402;2023-12-07T05:26:19;0.29;99.99
63051;SHT30;49136;47.416;19.402;2023-12-07T05:29:59;0.25;99.99
63051;SHT30;49136;47.416;19.402;2023-12-07T05:32:29;0.25;99.99
63051;SHT30;49136;47.416;19.402;2023-12-07T05:45:31;0.25;99.99
63051;SHT30;49136;47.416;19.402;2023-12-07T05:52:12;0.28;99.99
63051;SHT30;49136;47.416;19.402;2023-12-07T05:54:41;0.28;99.99
63051;SHT30;49136;47.416;19.402;2023-12-07T06:16:12;0.26;99.99
63051;SHT30;49136;47.416;19.402;2023-12-07T06:54:50;0.38;99.99
63051;SHT30;49136;47.416;19.402;2023-12-07T06:58:04;0.42;99.99
63051;SHT30;49136;47.416;19.402;2023-12-07T07:01:35;0.41;99.99
63051;SHT30;49136;47.416;19.402;2023-12-07T07:05:08;0.45;99.99
63051;SHT30;49136;47.416;19.402;2023-12-07T07:11:29;0.44;99.99
63051;SHT30;49136;47.416;19.402;2023-12-07T07:14:53;0.44;99.99
63051;SHT30;49136;47.416;19.402;2023-12-07T07:18:47;0.49;99.99
63051;SHT30;49136;47.416;19.402;2023-12-07T07:22:23;0.49;99.99
63051;SHT30;49136;47.416;19.402;2023-12-07T07:25:40;0.56;99.99
63051;SHT30;49136;47.416;19.402;2023-12-07T07:28:53;0.67;99.99
63051;SHT30;49136;47.416;19.402;2023-12-07T08:51:34;1.93;99.99
63051;SHT30;49136;47.416;19.402;2023-12-07T09:46:34;2.71;99.20
63051;SHT30;49136;47.416;19.402;2023-12-07T09:49:30;2.48;99.41
63051;SHT30;49136;47.416;19.402;2023-12-07T09:51:58;2.23;99.54
63051;SHT30;49136;47.416;19.402;2023-12-07T09:55:04;2.51;99.49
63051;SHT30;49136;47.416;19.402;2023-12-07T09:58:40;2.65;99.49
63051;SHT30;49136;47.416;19.402;2023-12-07T10:09:13;1.99;99.99
63051;SHT30;49136;47.416;19.402;2023-12-07T10:11:41;1.84;99.99
63051;SHT30;49136;47.416;19.402;2023-12-07T10:14:07;1.89;99.99
63051;SHT30;49136;47.416;19.402;2023-12-07T10:16:33;1.78;99.99
63051;SHT30;49136;47.416;19.402;2023-12-07T10:19:16;1.91;99.99
63051;SHT30;49136;47.416;19.402;2023-12-07T10:21:53;1.84;99.99
63051;SHT30;49136;47.416;19.402;2023-12-07T10:24:24;1.91;99.99
63051;SHT30;49136;47.416;19.402;2023-12-07T10:26:51;1.84;99.99
63051;SHT30;49136;47.416;19.402;2023-12-07T10:29:20;1.79;99.99
63051;SHT30;49136;47.416;19.402;2023-12-07T10:31:48;1.78;99.99
63051;SHT30;49136;47.416;19.402;2023-12-07T10:34:17;1.50;99.99
63051;SHT30;49136;47.416;19.402;2023-12-07T10:36:45;1.54;99.99
63051;SHT30;49136;47.416;19.402;2023-12-07T10:39:11;1.44;99.99
63051;SHT30;49136;47.416;19.402;2023-12-07T10:41:36;1.44;99.99
63051;SHT30;49136;47.416;19.402;2023-12-07T10:44:06;1.59;99.99
63051;SHT30;49136;47.416;19.402;2023-12-07T10:46:32;1.56;99.99
63051;SHT30;49136;47.416;19.402;2023-12-07T10:49:01;1.44;99.99
63051;SHT30;49136;47.416;19.402;2023-12-07T10:51:34;1.53;99.99
63051;SHT30;49136;47.416;19.402;2023-12-07T10:54:03;1.46;99.99
63051;SHT30;49136;47.416;19.402;2023-12-07T10:56:44;1.35;99.99
63051;SHT30;49136;47.416;19.402;2023-12-07T10:59:10;1.25;99.99
63051;SHT30;49136;47.416;19.402;2023-12-07T11:01:40;1.28;99.99
63051;SHT30;49136;47.416;19.402;2023-12-07T11:04:11;1.36;99.99
63051;SHT30;49136;47.416;19.402;2023-12-07T11:06:38;1.36;99.99
63051;SHT30;49136;47.416;19.402;2023-12-07T11:09:15;1.22;99.99
63051;SHT30;49136;47.416;19.402;2023-12-07T11:11:46;1.21;99.99
63051;SHT30;49136;47.416;19.402;2023-12-07T11:14:15;1.32;99.99
63051;SHT30;49136;47.416;19.402;2023-12-07T11:16:43;1.14;99.99
63051;SHT30;49136;47.416;19.402;2023-12-07T11:22:10;1.15;99.99
63051;SHT30;49136;47.416;19.402;2023-12-07T11:24:36;1.02;99.99
63051;SHT30;49136;47.416;19.402;2023-12-07T11:27:02;1.07;99.99
63051;SHT30;49136;47.416;19.402;2023-12-07T11:29:31;1.05;99.99
63051;SHT30;49136;47.416;19.402;2023-12-07T11:32:00;1.22;99.99
63051;SHT30;49136;47.416;19.402;2023-12-07T11:34:36;1.18;99.99
63051;SHT30;49136;47.416;19.402;2023-12-07T11:37:03;1.31;99.99
63051;SHT30;49136;47.416;19.402;2023-12-07T11:39:39;1.25;99.99
63051;SHT30;49136;47.416;19.402;2023-12-07T11:42:10;1.24;99.99
63051;SHT30;49136;47.416;19.402;2023-12-07T11:44:40;1.40;99.99
63051;SHT30;49136;47.416;19.402;2023-12-07T11:47:07;1.34;99.99
63051;SHT30;49136;47.416;19.402;2023-12-07T11:49:33;1.14;99.99
63051;SHT30;49136;47.416;19.402;2023-12-07T11:51:59;1.09;99.99
63051;SHT30;49136;47.416;19.402;2023-12-07T11:54:28;1.25;99.99
63051;SHT30;49136;47.416;19.402;2023-12-07T11:56:54;1.35;99.99
63051;SHT30;49136;47.416;19.402;2023-12-07T11:59:20;1.32;99.99
63051;SHT30;49136;47.416;19.402;2023-12-07T12:01:47;1.31;99.99
63051;SHT30;49136;47.416;19.402;2023-12-07T12:04:12;1.35;99.99
63051;SHT30;49136;47.416;19.402;2023-12-07T12:06:38;1.35;99.99
63051;SHT30;49136;47.416;19.402;2023-12-07T12:09:04;1.39;99.99
63051;SHT30;49136;47.416;19.402;2023-12-07T12:11:29;1.53;99.99
63051;SHT30;49136;47.416;19.402;2023-12-07T12:13:56;1.56;99.99
63051;SHT30;49136;47.416;19.402;2023-12-07T12:16:23;1.57;99.99
63051;SHT30;49136;47.416;19.402;2023-12-07T12:18:49;1.67;99.99
63051;SHT30;49136;47.416;19.402;2023-12-07T12:21:15;1.71;99.99
63051;SHT30;49136;47.416;19.402;2023-12-07T12:23:41;1.66;99.99
63051;SHT30;49136;47.416;19.402;2023-12-07T12:26:09;1.70;99.99
63051;SHT30;49136;47.416;19.402;2023-12-07T12:28:36;1.44;99.99
63051;SHT30;49136;47.416;19.402;2023-12-07T12:31:09;1.40;99.99
63051;SHT30;49136;47.416;19.402;2023-12-07T12:33:37;1.43;99.99
63051;SHT30;49136;47.416;19.402;2023-12-07T12:36:07;1.60;99.99
63051;SHT30;49136;47.416;19.402;2023-12-07T12:38:55;1.61;99.99
63051;SHT30;49136;47.416;19.402;2023-12-07T12:41:21;1.34;99.99
63051;SHT30;49136;47.416;19.402;2023-12-07T12:43:48;1.36;99.99
63051;SHT30;49136;47.416;19.402;2023-12-07T12:46:15;1.38;99.99
63051;SHT30;49136;47.416;19.402;2023-12-07T12:48:56;1.34;99.99
63051;SHT30;49136;47.416;19.402;2023-12-07T12:51:24;1.32;99.99
63051;SHT30;49136;47.416;19.402;2023-12-07T12:53:51;1.26;99.99
63051;SHT30;49136;47.416;19.402;2023-12-07T12:56:19;1.50;99.99
63051;SHT30;49136;47.416;19.402;2023-12-07T12:58:45;1.49;99.99
63051;SHT30;49136;47.416;19.402;2023-12-07T13:01:11;1.66;99.99
63051;SHT30;49136;47.416;19.402;2023-12-07T13:03:36;1.74;99.99
63051;SHT30;49136;47.416;19.402;2023-12-07T13:06:05;1.68;99.99
63051;SHT30;49136;47.416;19.402;2023-12-07T13:08:30;1.49;99.99
63051;SHT30;49136;47.416;19.402;2023-12-07T13:10:58;1.56;99.99
63051;SHT30;49136;47.416;19.402;2023-12-07T13:13:23;1.61;99.99
63051;SHT30;49136;47.416;19.402;2023-12-07T13:15:49;1.67;99.99
63051;SHT30;49136;47.416;19.402;2023-12-07T13:18:16;1.74;99.99
63051;SHT30;49136;47.416;19.402;2023-12-07T13:20:41;1.84;99.99
63051;SHT30;49136;47.416;19.402;2023-12-07T13:23:07;1.73;99.99
63051;SHT30;49136;47.416;19.402;2023-12-07T13:25:32;1.74;99.99
63051;SHT30;49136;47.416;19.402;2023-12-07T13:27:57;1.70;99.99
63051;SHT30;49136;47.416;19.402;2023-12-07T13:30:24;1.60;99.99
63051;SHT30;49136;47.416;19.402;2023-12-07T13:32:54;1.42;99.99
63051;SHT30;49136;47.416;19.402;2023-12-07T13:35:20;1.35;99.99
63051;SHT30;49136;47.416;19.402;2023-12-07T13:37:45;1.21;99.99
63051;SHT30;49136;47.416;19.402;2023-12-07T13:40:11;1.26;99.99
63051;SHT30;49136;47.416;19.402;2023-12-07T13:42:37;1.18;99.99
63051;SHT30;49136;47.416;19.402;2023-12-07T13:45:03;1.12;99.99
63051;SHT30;49136;47.416;19.402;2023-12-07T13:47:28;1.12;99.99
63051;SHT30;49136;47.416;19.402;2023-12-07T13:50:00;1.15;99.99
63051;SHT30;49136;47.416;19.402;2023-12-07T13:52:28;1.11;99.99
63051;SHT30;49136;47.416;19.402;2023-12-07T13:54:54;0.98;99.99
63051;SHT30;49136;47.416;19.402;2023-12-07T13:57:23;1.00;99.99
63051;SHT30;49136;47.416;19.402;2023-12-07T13:59:51;0.97;99.99
63051;SHT30;49136;47.416;19.402;2023-12-07T14:02:18;0.98;99.99
63051;SHT30;49136;47.416;19.402;2023-12-07T14:04:44;1.00;99.99
63051;SHT30;49136;47.416;19.402;2023-12-07T14:07:20;0.94;99.99
63051;SHT30;49136;47.416;19.402;2023-12-07T14:09:48;0.94;99.99
63051;SHT30;49136;47.416;19.402;2023-12-07T14:12:13;0.91;99.99
63051;SHT30;49136;47.416;19.402;2023-12-07T14:14:44;0.76;99.99
63051;SHT30;49136;47.416;19.402;2023-12-07T14:17:11;0.83;99.99
63051;SHT30;49136;47.416;19.402;2023-12-07T14:19:36;0.74;99.99
63051;SHT30;49136;47.416;19.402;2023-12-07T14:22:03;0.69;99.99
63051;SHT30;49136;47.416;19.402;2023-12-07T14:24:29;0.70;99.99
63051;SHT30;49136;47.416;19.402;2023-12-07T14:26:57;0.70;99.99
63051;SHT30;49136;47.416;19.402;2023-12-07T14:29:23;0.66;99.99
63051;SHT30;49136;47.416;19.402;2023-12-07T14:31:53;0.67;99.99
63051;SHT30;49136;47.416;19.402;2023-12-07T14:34:19;0.66;99.99
63051;SHT30;49136;47.416;19.402;2023-12-07T14:36:47;0.63;99.99
63051;SHT30;49136;47.416;19.402;2023-12-07T14:39:13;0.60;99.99
63051;SHT30;49136;47.416;19.402;2023-12-07T14:41:45;0.60;99.99
63051;SHT30;49136;47.416;19.402;2023-12-07T14:44:15;0.56;99.99
63051;SHT30;49136;47.416;19.402;2023-12-07T14:46:43;0.59;99.99
63051;SHT30;49136;47.416;19.402;2023-12-07T14:49:12;0.52;99.99
63051;SHT30;49136;47.416;19.402;2023-12-07T14:51:39;0.50;99.99
63051;SHT30;49136;47.416;19.402;2023-12-07T14:54:06;0.50;99.99
63051;SHT30;49136;47.416;19.402;2023-12-07T14:56:38;0.45;99.99
63051;SHT30;49136;47.416;19.402;2023-12-07T14:59:06;0.49;99.99
63051;SHT30;49136;47.416;19.402;2023-12-07T15:01:33;0.49;99.99
63051;SHT30;49136;47.416;19.402;2023-12-07T15:03:59;0.44;99.99
63051;SHT30;49136;47.416;19.402;2023-12-07T15:06:27;0.41;99.99
63051;SHT30;49136;47.416;19.402;2023-12-07T15:08:54;0.38;99.99
63051;SHT30;49136;47.416;19.402;2023-12-07T15:11:22;0.39;99.99
63051;SHT30;49136;47.416;19.402;2023-12-07T15:13:53;0.38;99.99
63051;SHT30;49136;47.416;19.402;2023-12-07T15:16:23;0.38;99.99
63051;SHT30;49136;47.416;19.402;2023-12-07T15:18:51;0.39;99.99
63051;SHT30;49136;47.416;19.402;2023-12-07T15:21:27;0.37;99.99
63051;SHT30;49136;47.416;19.402;2023-12-07T15:23:54;0.37;99.99
63051;SHT30;49136;47.416;19.402;2023-12-07T15:26:21;0.35;99.99
63051;SHT30;49136;47.416;19.402;2023-12-07T15:28:48;0.35;99.99
63051;SHT30;49136;47.416;19.402;2023-12-07T15:31:26;0.37;99.99
63051;SHT30;49136;47.416;19.402;2023-12-07T15:33:53;0.35;99.99
63051;SHT30;49136;47.416;19.402;2023-12-07T15:36:23;0.35;99.99
63051;SHT30;49136;47.416;19.402;2023-12-07T15:38:50;0.35;99.99
63051;SHT30;49136;47.416;19.402;2023-12-07T15:41:27;0.35;99.99
63051;SHT30;49136;47.416;19.402;2023-12-07T15:43:59;0.39;99.99
63051;SHT30;49136;47.416;19.402;2023-12-07T15:46:27;0.35;99.99
63051;SHT30;49136;47.416;19.402;2023-12-07T15:48:55;0.35;99.99
63051;SHT30;49136;47.416;19.402;2023-12-07T15:51:25;0.34;99.99
63051;SHT30;49136;47.416;19.402;2023-12-07T15:54:12;0.35;99.99
63051;SHT30;49136;47.416;19.402;2023-12-07T15:56:48;0.38;99.99
63051;SHT30;49136;47.416;19.402;2023-12-07T15:59:17;0.35;99.99
63051;SHT30;49136;47.416;19.402;2023-12-07T16:01:53;0.34;99.99
63051;SHT30;49136;47.416;19.402;2023-12-07T16:04:49;0.31;99.99
63051;SHT30;49136;47.416;19.402;2023-12-07T16:07:18;0.32;99.99
63051;SHT30;49136;47.416;19.402;2023-12-07T16:10:06;0.35;99.99
63051;SHT30;49136;47.416;19.402;2023-12-07T16:12:48;0.35;99.99
63051;SHT30;49136;47.416;19.402;2023-12-07T16:15:28;0.37;99.99
63051;SHT30;49136;47.416;19.402;2023-12-07T16:17:56;0.38;99.99
63051;SHT30;49136;47.416;19.402;2023-12-07T16:20:37;0.37;99.99
63051;SHT30;49136;47.416;19.402;2023-12-07T16:23:26;0.38;99.99
63051;SHT30;49136;47.416;19.402;2023-12-07T16:26:07;0.35;99.99
63051;SHT30;49136;47.416;19.402;2023-12-07T16:28:53;0.34;99.99
63051;SHT30;49136;47.416;19.402;2023-12-07T16:31:25;0.38;99.99
63051;SHT30;49136;47.416;19.402;2023-12-07T16:34:05;0.38;99.99
63051;SHT30;49136;47.416;19.402;2023-12-07T16:36:32;0.38;99.99
63051;SHT30;49136;47.416;19.402;2023-12-07T16:39:05;0.37;99.99
63051;SHT30;49136;47.416;19.402;2023-12-07T16:41:33;0.38;99.99
63051;SHT30;49136;47.416;19.402;2023-12-07T16:43:59;0.38;99.99
63051;SHT30;49136;47.416;19.402;2023-12-07T16:46:42;0.37;99.99
63051;SHT30;49136;47.416;19.402;2023-12-07T16:49:25;0.38;99.99
63051;SHT30;49136;47.416;19.402;2023-12-07T16:51:54;0.37;99.99
63051;SHT30;49136;47.416;19.402;2023-12-07T16:54:55;0.35;99.99
63051;SHT30;49136;47.416;19.402;2023-12-07T16:57:49;0.35;99.99
63051;SHT30;49136;47.416;19.402;2023-12-07T17:00:20;0.38;99.99
63051;SHT30;49136;47.416;19.402;2023-12-07T17:02:56;0.38;99.99
63051;SHT30;49136;47.416;19.402;2023-12-07T17:05:27;0.37;99.99
63051;SHT30;49136;47.416;19.402;2023-12-07T17:07:58;0.39;99.99
63051;SHT30;49136;47.416;19.402;2023-12-07T17:10:33;0.41;99.99
63051;SHT30;49136;47.416;19.402;2023-12-07T17:12:59;0.38;99.99
63051;SHT30;49136;47.416;19.402;2023-12-07T17:15:27;0.41;99.99
63051;SHT30;49136;47.416;19.402;2023-12-07T17:18:01;0.41;99.99
63051;SHT30;49136;47.416;19.402;2023-12-07T17:20:41;0.39;99.99
63051;SHT30;49136;47.416;19.402;2023-12-07T17:23:16;0.39;99.99
63051;SHT30;49136;47.416;19.402;2023-12-07T17:25:53;0.41;99.99
63051;SHT30;49136;47.416;19.402;2023-12-07T17:28:56;0.42;99.99
63051;SHT30;49136;47.416;19.402;2023-12-07T17:31:43;0.39;99.99
63051;SHT30;49136;47.416;19.402;2023-12-07T17:34:11;0.42;99.99
63051;SHT30;49136;47.416;19.402;2023-12-07T17:36:39;0.42;99.99
63051;SHT30;49136;47.416;19.402;2023-12-07T17:39:19;0.44;99.99
63051;SHT30;49136;47.416;19.402;2023-12-07T17:42:17;0.41;99.99
63051;SHT30;49136;47.416;19.402;2023-12-07T17:44:46;0.42;99.99
63051;SHT30;49136;47.416;19.402;2023-12-07T17:47:11;0.44;99.99
63051;SHT30;49136;47.416;19.402;2023-12-07T17:49:41;0.41;99.99
63051;SHT30;49136;47.416;19.402;2023-12-07T17:52:07;0.44;99.99
63051;SHT30;49136;47.416;19.402;2023-12-07T17:54:33;0.41;99.99
63051;SHT30;49136;47.416;19.402;2023-12-07T17:57:00;0.42;99.99
63051;SHT30;49136;47.416;19.402;2023-12-07T17:59:30;0.41;99.99
63051;SHT30;49136;47.416;19.402;2023-12-07T18:01:57;0.39;99.99
63051;SHT30;49136;47.416;19.402;2023-12-07T18:04:45;0.42;99.99
63051;SHT30;49136;47.416;19.402;2023-12-07T18:07:17;0.41;99.99
63051;SHT30;49136;47.416;19.402;2023-12-07T18:09:51;0.37;99.99
63051;SHT30;49136;47.416;19.402;2023-12-07T18:12:17;0.39;99.99
63051;SHT30;49136;47.416;19.402;2023-12-07T18:14:45;0.41;99.99
63051;SHT30;49136;47.416;19.402;2023-12-07T18:17:18;0.37;99.99
63051;SHT30;49136;47.416;19.402;2023-12-07T18:20:13;0.39;99.99
63051;SHT30;49136;47.416;19.402;2023-12-07T18:22:43;0.35;99.99
63051;SHT30;49136;47.416;19.402;2023-12-07T18:25:15;0.39;99.99
63051;SHT30;49136;47.416;19.402;2023-12-07T18:27:40;0.38;99.99
63051;SHT30;49136;47.416;19.402;2023-12-07T18:30:08;0.35;99.99
63051;SHT30;49136;47.416;19.402;2023-12-07T18:32:42;0.35;99.99
63051;SHT30;49136;47.416;19.402;2023-12-07T18:39:49;0.37;99.99
